sensor_id;sensor_type;location;lat;lon;timestamp;P1;durP1;ratioP1;P2;durP2;ratioP2
37495;SDS011;23346;52.088;4.746;2022-07-31T00:00:21;6.88;;;3.30;;
37495;SDS011;23346;52.088;4.746;2022-07-31T00:02:47;5.38;;;2.85;;
37495;SDS011;23346;52.088;4.746;2022-07-31T00:05:13;5.53;;;3.70;;
37495;SDS011;23346;52.088;4.746;2022-07-31T00:07:39;5.90;;;3.55;;
37495;SDS011;23346;52.088;4.746;2022-07-31T00:10:05;6.13;;;3.90;;
37495;SDS011;23346;52.088;4.746;2022-07-31T00:12:32;8.68;;;4.10;;
37495;SDS011;23346;52.088;4.746;2022-07-31T00:15:02;10.10;;;4.20;;
37495;SDS011;23346;52.088;4.746;2022-07-31T00:17:29;9.48;;;3.95;;
37495;SDS011;23346;52.088;4.746;2022-07-31T00:19:55;7.03;;;4.60;;
37495;SDS011;23346;52.088;4.746;2022-07-31T00:22:21;6.55;;;3.50;;
37495;SDS011;23346;52.088;4.746;2022-07-31T00:24:47;6.90;;;3.60;;
37495;SDS011;23346;52.088;4.746;2022-07-31T00:27:13;7.07;;;3.58;;
37495;SDS011;23346;52.088;4.746;2022-07-31T00:29:39;8.05;;;4.28;;
37495;SDS011;23346;52.088;4.746;2022-07-31T00:32:05;8.57;;;3.80;;
37495;SDS011;23346;52.088;4.746;2022-07-31T00:34:31;9.07;;;4.30;;
37495;SDS011;23346;52.088;4.746;2022-07-31T00:36:57;10.90;;;5.82;;
37495;SDS011;23346;52.088;4.746;2022-07-31T00:39:23;13.73;;;4.70;;
37495;SDS011;23346;52.088;4.746;2022-07-31T00:41:49;9.10;;;4.82;;
37495;SDS011;23346;52.088;4.746;2022-07-31T00:44:15;8.98;;;5.18;;
37495;SDS011;23346;52.088;4.746;2022-07-31T00:46:41;11.70;;;4.22;;
37495;SDS011;23346;52.088;4.746;2022-07-31T00:49:08;12.98;;;4.65;;
37495;SDS011;23346;52.088;4.746;2022-07-31T00:51:35;14.45;;;5.35;;
37495;SDS011;23346;52.088;4.746;2022-07-31T00:54:02;11.73;;;5.13;;
37495;SDS011;23346;52.088;4.746;2022-07-31T00:56:28;11.13;;;5.03;;
37495;SDS011;23346;52.088;4.746;2022-07-31T00:58:54;9.45;;;5.65;;
37495;SDS011;23346;52.088;4.746;2022-07-31T01:01:20;10.32;;;5.45;;
37495;SDS011;23346;52.088;4.746;2022-07-31T01:03:47;12.10;;;5.78;;
37495;SDS011;23346;52.088;4.746;2022-07-31T01:06:13;13.68;;;5.57;;
37495;SDS011;23346;52.088;4.746;2022-07-31T01:08:39;11.38;;;5.10;;
37495;SDS011;23346;52.088;4.746;2022-07-31T01:11:13;10.60;;;5.50;;
37495;SDS011;23346;52.088;4.746;2022-07-31T01:13:56;8.20;;;5.10;;
37495;SDS011;23346;52.088;4.746;2022-07-31T01:16:23;11.98;;;6.05;;
37495;SDS011;23346;52.088;4.746;2022-07-31T01:18:50;12.75;;;5.65;;
37495;SDS011;23346;52.088;4.746;2022-07-31T01:21:20;14.57;;;6.70;;
37495;SDS011;23346;52.088;4.746;2022-07-31T01:24:05;10.85;;;6.68;;
37495;SDS011;23346;52.088;4.746;2022-07-31T01:26:45;8.90;;;5.70;;
37495;SDS011;23346;52.088;4.746;2022-07-31T01:31:49;14.73;;;6.10;;
37495;SDS011;23346;52.088;4.746;2022-07-31T01:34:24;14.68;;;6.85;;
37495;SDS011;23346;52.088;4.746;2022-07-31T01:36:56;9.18;;;6.35;;
37495;SDS011;23346;52.088;4.746;2022-07-31T01:39:23;14.73;;;6.93;;
37495;SDS011;23346;52.088;4.746;2022-07-31T01:41:49;11.30;;;7.45;;
37495;SDS011;23346;52.088;4.746;2022-07-31T01:44:17;12.30;;;7.57;;
37495;SDS011;23346;52.088;4.746;2022-07-31T01:46:43;10.32;;;6.63;;
37495;SDS011;23346;52.088;4.746;2022-07-31T01:49:10;10.98;;;6.72;;
37495;SDS011;23346;52.088;4.746;2022-07-31T01:51:38;10.98;;;6.60;;
37495;SDS011;23346;52.088;4.746;2022-07-31T01:54:06;11.73;;;6.20;;
37495;SDS011;23346;52.088;4.746;2022-07-31T01:56:33;11.25;;;6.65;;
37495;SDS011;23346;52.088;4.746;2022-07-31T01:58:59;9.55;;;6.68;;
37495;SDS011;23346;52.088;4.746;2022-07-31T02:01:26;7.95;;;6.65;;
37495;SDS011;23346;52.088;4.746;2022-07-31T02:03:53;9.30;;;7.00;;
37495;SDS011;23346;52.088;4.746;2022-07-31T02:06:20;11.93;;;6.97;;
37495;SDS011;23346;52.088;4.746;2022-07-31T02:08:48;12.00;;;6.35;;
37495;SDS011;23346;52.088;4.746;2022-07-31T02:11:14;10.13;;;6.10;;
37495;SDS011;23346;52.088;4.746;2022-07-31T02:13:43;10.68;;;5.85;;
37495;SDS011;23346;52.088;4.746;2022-07-31T02:16:10;7.78;;;5.65;;
37495;SDS011;23346;52.088;4.746;2022-07-31T02:18:36;13.02;;;5.80;;
37495;SDS011;23346;52.088;4.746;2022-07-31T02:21:02;10.90;;;6.00;;
37495;SDS011;23346;52.088;4.746;2022-07-31T02:23:28;8.98;;;5.75;;
37495;SDS011;23346;52.088;4.746;2022-07-31T02:25:54;12.65;;;5.65;;
37495;SDS011;23346;52.088;4.746;2022-07-31T02:28:21;10.48;;;5.35;;
37495;SDS011;23346;52.088;4.746;2022-07-31T02:30:47;15.40;;;5.57;;
37495;SDS011;23346;52.088;4.746;2022-07-31T02:33:19;13.18;;;5.70;;
37495;SDS011;23346;52.088;4.746;2022-07-31T02:35:47;11.65;;;6.05;;
37495;SDS011;23346;52.088;4.746;2022-07-31T02:38:13;14.45;;;5.38;;
37495;SDS011;23346;52.088;4.746;2022-07-31T02:40:39;13.63;;;6.13;;
37495;SDS011;23346;52.088;4.746;2022-07-31T02:43:06;10.57;;;4.93;;
37495;SDS011;23346;52.088;4.746;2022-07-31T02:45:32;14.85;;;5.60;;
37495;SDS011;23346;52.088;4.746;2022-07-31T02:47:59;11.38;;;5.97;;
37495;SDS011;23346;52.088;4.746;2022-07-31T02:50:25;10.55;;;5.53;;
37495;SDS011;23346;52.088;4.746;2022-07-31T02:52:52;14.25;;;5.38;;
37495;SDS011;23346;52.088;4.746;2022-07-31T02:55:18;15.82;;;5.63;;
37495;SDS011;23346;52.088;4.746;2022-07-31T02:57:44;14.27;;;5.40;;
37495;SDS011;23346;52.088;4.746;2022-07-31T03:00:18;12.85;;;5.80;;
37495;SDS011;23346;52.088;4.746;2022-07-31T03:02:50;10.43;;;5.00;;
37495;SDS011;23346;52.088;4.746;2022-07-31T03:05:16;9.85;;;5.20;;
37495;SDS011;23346;52.088;4.746;2022-07-31T03:07:43;10.68;;;5.93;;
37495;SDS011;23346;52.088;4.746;2022-07-31T03:10:09;19.00;;;6.90;;
37495;SDS011;23346;52.088;4.746;2022-07-31T03:12:39;11.45;;;5.70;;
37495;SDS011;23346;52.088;4.746;2022-07-31T03:15:08;11.60;;;5.57;;
37495;SDS011;23346;52.088;4.746;2022-07-31T03:17:38;10.20;;;5.68;;
37495;SDS011;23346;52.088;4.746;2022-07-31T03:20:08;12.50;;;6.72;;
37495;SDS011;23346;52.088;4.746;2022-07-31T03:22:34;11.38;;;6.95;;
37495;SDS011;23346;52.088;4.746;2022-07-31T03:25:00;10.73;;;7.30;;
37495;SDS011;23346;52.088;4.746;2022-07-31T03:27:27;15.95;;;6.60;;
37495;SDS011;23346;52.088;4.746;2022-07-31T03:29:53;12.90;;;7.55;;
37495;SDS011;23346;52.088;4.746;2022-07-31T03:32:19;19.70;;;8.23;;
37495;SDS011;23346;52.088;4.746;2022-07-31T03:34:45;14.98;;;6.90;;
37495;SDS011;23346;52.088;4.746;2022-07-31T03:37:12;14.68;;;7.60;;
37495;SDS011;23346;52.088;4.746;2022-07-31T03:39:38;9.50;;;7.15;;
37495;SDS011;23346;52.088;4.746;2022-07-31T03:42:05;11.57;;;7.45;;
37495;SDS011;23346;52.088;4.746;2022-07-31T03:44:31;14.43;;;7.90;;
37495;SDS011;23346;52.088;4.746;2022-07-31T03:46:58;12.70;;;7.38;;
37495;SDS011;23346;52.088;4.746;2022-07-31T03:49:24;13.88;;;7.40;;
37495;SDS011;23346;52.088;4.746;2022-07-31T03:51:51;15.68;;;7.72;;
37495;SDS011;23346;52.088;4.746;2022-07-31T03:54:17;13.75;;;7.68;;
37495;SDS011;23346;52.088;4.746;2022-07-31T03:56:44;13.18;;;8.02;;
37495;SDS011;23346;52.088;4.746;2022-07-31T03:59:11;14.55;;;7.85;;
37495;SDS011;23346;52.088;4.746;2022-07-31T04:01:38;11.38;;;7.07;;
37495;SDS011;23346;52.088;4.746;2022-07-31T04:04:04;15.10;;;8.38;;
37495;SDS011;23346;52.088;4.746;2022-07-31T04:06:30;10.80;;;7.65;;
37495;SDS011;23346;52.088;4.746;2022-07-31T04:08:56;13.77;;;7.60;;
37495;SDS011;23346;52.088;4.746;2022-07-31T04:11:22;13.85;;;8.00;;
37495;SDS011;23346;52.088;4.746;2022-07-31T04:13:48;12.05;;;7.57;;
37495;SDS011;23346;52.088;4.746;2022-07-31T04:16:14;11.20;;;8.18;;
37495;SDS011;23346;52.088;4.746;2022-07-31T04:18:40;14.18;;;7.30;;
37495;SDS011;23346;52.088;4.746;2022-07-31T04:21:06;14.20;;;8.05;;
37495;SDS011;23346;52.088;4.746;2022-07-31T04:23:32;9.80;;;6.70;;
37495;SDS011;23346;52.088;4.746;2022-07-31T04:25:58;14.07;;;7.80;;
37495;SDS011;23346;52.088;4.746;2022-07-31T04:28:24;11.75;;;7.78;;
37495;SDS011;23346;52.088;4.746;2022-07-31T04:30:50;15.45;;;7.63;;
37495;SDS011;23346;52.088;4.746;2022-07-31T04:33:16;9.98;;;6.95;;
37495;SDS011;23346;52.088;4.746;2022-07-31T04:35:42;11.77;;;7.10;;
37495;SDS011;23346;52.088;4.746;2022-07-31T04:38:08;12.93;;;7.45;;
37495;SDS011;23346;52.088;4.746;2022-07-31T04:40:36;11.10;;;6.95;;
37495;SDS011;23346;52.088;4.746;2022-07-31T04:43:02;12.27;;;7.82;;
37495;SDS011;23346;52.088;4.746;2022-07-31T04:45:28;10.82;;;7.03;;
37495;SDS011;23346;52.088;4.746;2022-07-31T04:47:54;12.18;;;7.20;;
37495;SDS011;23346;52.088;4.746;2022-07-31T04:50:20;13.25;;;7.55;;
37495;SDS011;23346;52.088;4.746;2022-07-31T04:52:46;14.32;;;7.00;;
37495;SDS011;23346;52.088;4.746;2022-07-31T04:55:12;10.13;;;7.25;;
37495;SDS011;23346;52.088;4.746;2022-07-31T04:57:38;11.88;;;7.25;;
37495;SDS011;23346;52.088;4.746;2022-07-31T05:00:04;10.93;;;7.22;;
37495;SDS011;23346;52.088;4.746;2022-07-31T05:02:31;12.93;;;7.65;;
37495;SDS011;23346;52.088;4.746;2022-07-31T05:04:57;10.65;;;7.93;;
37495;SDS011;23346;52.088;4.746;2022-07-31T05:07:24;12.32;;;8.30;;
37495;SDS011;23346;52.088;4.746;2022-07-31T05:09:50;14.38;;;8.02;;
37495;SDS011;23346;52.088;4.746;2022-07-31T05:12:16;13.15;;;8.02;;
37495;SDS011;23346;52.088;4.746;2022-07-31T05:14:42;16.05;;;8.77;;
37495;SDS011;23346;52.088;4.746;2022-07-31T05:17:08;18.50;;;9.25;;
37495;SDS011;23346;52.088;4.746;2022-07-31T05:19:34;16.15;;;8.75;;
37495;SDS011;23346;52.088;4.746;2022-07-31T05:22:00;16.10;;;8.95;;
37495;SDS011;23346;52.088;4.746;2022-07-31T05:24:28;17.40;;;9.80;;
37495;SDS011;23346;52.088;4.746;2022-07-31T05:26:55;16.50;;;9.85;;
37495;SDS011;23346;52.088;4.746;2022-07-31T05:29:21;21.67;;;10.35;;
37495;SDS011;23346;52.088;4.746;2022-07-31T05:31:47;16.20;;;9.52;;
37495;SDS011;23346;52.088;4.746;2022-07-31T05:34:13;23.13;;;9.95;;
37495;SDS011;23346;52.088;4.746;2022-07-31T05:36:39;19.90;;;9.73;;
37495;SDS011;23346;52.088;4.746;2022-07-31T05:39:05;17.33;;;9.88;;
37495;SDS011;23346;52.088;4.746;2022-07-31T05:41:31;18.48;;;10.00;;
37495;SDS011;23346;52.088;4.746;2022-07-31T05:43:58;18.45;;;9.80;;
37495;SDS011;23346;52.088;4.746;2022-07-31T05:46:24;20.05;;;10.52;;
37495;SDS011;23346;52.088;4.746;2022-07-31T05:48:50;22.40;;;10.75;;
37495;SDS011;23346;52.088;4.746;2022-07-31T05:51:16;19.48;;;10.35;;
37495;SDS011;23346;52.088;4.746;2022-07-31T05:53:42;20.42;;;11.50;;
37495;SDS011;23346;52.088;4.746;2022-07-31T05:56:08;19.48;;;10.50;;
37495;SDS011;23346;52.088;4.746;2022-07-31T05:58:34;22.73;;;12.00;;
37495;SDS011;23346;52.088;4.746;2022-07-31T06:01:00;19.50;;;11.50;;
37495;SDS011;23346;52.088;4.746;2022-07-31T06:03:27;25.60;;;12.27;;
37495;SDS011;23346;52.088;4.746;2022-07-31T06:05:53;22.58;;;11.85;;
37495;SDS011;23346;52.088;4.746;2022-07-31T06:08:20;19.88;;;12.52;;
37495;SDS011;23346;52.088;4.746;2022-07-31T06:10:45;28.23;;;12.98;;
37495;SDS011;23346;52.088;4.746;2022-07-31T06:13:12;27.13;;;12.90;;
37495;SDS011;23346;52.088;4.746;2022-07-31T06:15:39;30.48;;;13.57;;
37495;SDS011;23346;52.088;4.746;2022-07-31T06:18:05;24.65;;;13.25;;
37495;SDS011;23346;52.088;4.746;2022-07-31T06:20:31;25.80;;;13.52;;
37495;SDS011;23346;52.088;4.746;2022-07-31T06:22:57;24.73;;;13.23;;
37495;SDS011;23346;52.088;4.746;2022-07-31T06:25:23;27.88;;;14.35;;
37495;SDS011;23346;52.088;4.746;2022-07-31T06:27:49;28.95;;;14.18;;
37495;SDS011;23346;52.088;4.746;2022-07-31T06:30:15;26.45;;;13.38;;
37495;SDS011;23346;52.088;4.746;2022-07-31T06:32:42;29.60;;;14.88;;
37495;SDS011;23346;52.088;4.746;2022-07-31T06:35:08;22.60;;;13.82;;
37495;SDS011;23346;52.088;4.746;2022-07-31T06:37:34;29.15;;;15.35;;
37495;SDS011;23346;52.088;4.746;2022-07-31T06:40:00;26.15;;;14.65;;
37495;SDS011;23346;52.088;4.746;2022-07-31T06:42:26;28.08;;;15.85;;
37495;SDS011;23346;52.088;4.746;2022-07-31T06:44:52;27.98;;;15.57;;
37495;SDS011;23346;52.088;4.746;2022-07-31T06:47:19;33.13;;;18.85;;
37495;SDS011;23346;52.088;4.746;2022-07-31T06:49:46;33.92;;;17.30;;
37495;SDS011;23346;52.088;4.746;2022-07-31T06:52:12;34.45;;;17.17;;
37495;SDS011;23346;52.088;4.746;2022-07-31T06:54:38;35.63;;;18.17;;
37495;SDS011;23346;52.088;4.746;2022-07-31T06:57:04;31.48;;;16.55;;
37495;SDS011;23346;52.088;4.746;2022-07-31T06:59:30;32.53;;;17.98;;
37495;SDS011;23346;52.088;4.746;2022-07-31T07:01:56;33.28;;;17.13;;
37495;SDS011;23346;52.088;4.746;2022-07-31T07:04:22;30.27;;;17.30;;
37495;SDS011;23346;52.088;4.746;2022-07-31T07:06:48;32.90;;;19.33;;
37495;SDS011;23346;52.088;4.746;2022-07-31T07:09:14;30.55;;;19.38;;
37495;SDS011;23346;52.088;4.746;2022-07-31T07:11:40;36.95;;;17.58;;
37495;SDS011;23346;52.088;4.746;2022-07-31T07:14:06;32.70;;;18.83;;
37495;SDS011;23346;52.088;4.746;2022-07-31T07:16:32;33.38;;;18.00;;
37495;SDS011;23346;52.088;4.746;2022-07-31T07:18:57;32.15;;;18.25;;
37495;SDS011;23346;52.088;4.746;2022-07-31T07:21:23;33.78;;;19.27;;
37495;SDS011;23346;52.088;4.746;2022-07-31T07:23:50;32.20;;;17.70;;
37495;SDS011;23346;52.088;4.746;2022-07-31T07:26:16;36.42;;;19.58;;
37495;SDS011;23346;52.088;4.746;2022-07-31T07:28:42;35.65;;;18.90;;
37495;SDS011;23346;52.088;4.746;2022-07-31T07:31:08;34.40;;;18.65;;
37495;SDS011;23346;52.088;4.746;2022-07-31T07:33:35;33.35;;;20.00;;
37495;SDS011;23346;52.088;4.746;2022-07-31T07:36:01;32.05;;;18.45;;
37495;SDS011;23346;52.088;4.746;2022-07-31T07:38:27;43.00;;;19.52;;
37495;SDS011;23346;52.088;4.746;2022-07-31T07:40:53;33.95;;;18.58;;
37495;SDS011;23346;52.088;4.746;2022-07-31T07:43:19;30.98;;;19.92;;
37495;SDS011;23346;52.088;4.746;2022-07-31T07:45:45;39.75;;;22.38;;
37495;SDS011;23346;52.088;4.746;2022-07-31T07:48:11;42.58;;;21.08;;
37495;SDS011;23346;52.088;4.746;2022-07-31T07:50:37;56.95;;;24.90;;
37495;SDS011;23346;52.088;4.746;2022-07-31T07:53:03;50.67;;;25.15;;
37495;SDS011;23346;52.088;4.746;2022-07-31T07:55:29;52.42;;;25.85;;
37495;SDS011;23346;52.088;4.746;2022-07-31T07:57:55;52.58;;;24.70;;
37495;SDS011;23346;52.088;4.746;2022-07-31T08:00:21;49.70;;;26.00;;
37495;SDS011;23346;52.088;4.746;2022-07-31T08:02:47;52.65;;;26.02;;
37495;SDS011;23346;52.088;4.746;2022-07-31T08:05:14;51.53;;;28.08;;
37495;SDS011;23346;52.088;4.746;2022-07-31T08:07:40;55.45;;;29.50;;
37495;SDS011;23346;52.088;4.746;2022-07-31T08:10:06;55.42;;;28.98;;
37495;SDS011;23346;52.088;4.746;2022-07-31T08:12:33;56.35;;;29.58;;
37495;SDS011;23346;52.088;4.746;2022-07-31T08:14:59;54.03;;;29.35;;
37495;SDS011;23346;52.088;4.746;2022-07-31T08:17:25;58.08;;;29.80;;
37495;SDS011;23346;52.088;4.746;2022-07-31T08:19:51;52.90;;;28.27;;
37495;SDS011;23346;52.088;4.746;2022-07-31T08:22:17;54.17;;;29.98;;
37495;SDS011;23346;52.088;4.746;2022-07-31T08:24:43;55.17;;;28.50;;
37495;SDS011;23346;52.088;4.746;2022-07-31T08:27:09;53.13;;;29.45;;
37495;SDS011;23346;52.088;4.746;2022-07-31T08:29:50;57.00;;;30.08;;
37495;SDS011;23346;52.088;4.746;2022-07-31T08:32:16;55.47;;;30.92;;
37495;SDS011;23346;52.088;4.746;2022-07-31T08:34:43;55.30;;;29.85;;
37495;SDS011;23346;52.088;4.746;2022-07-31T08:37:09;47.00;;;27.25;;
37495;SDS011;23346;52.088;4.746;2022-07-31T08:39:35;51.58;;;28.52;;
37495;SDS011;23346;52.088;4.746;2022-07-31T08:42:05;49.30;;;27.75;;
37495;SDS011;23346;52.088;4.746;2022-07-31T08:44:34;48.40;;;27.35;;
37495;SDS011;23346;52.088;4.746;2022-07-31T08:47:00;47.38;;;26.85;;
37495;SDS011;23346;52.088;4.746;2022-07-31T08:49:27;50.53;;;27.08;;
37495;SDS011;23346;52.088;4.746;2022-07-31T08:51:54;46.50;;;26.42;;
37495;SDS011;23346;52.088;4.746;2022-07-31T08:54:23;42.17;;;25.60;;
37495;SDS011;23346;52.088;4.746;2022-07-31T08:56:50;35.63;;;24.02;;
37495;SDS011;23346;52.088;4.746;2022-07-31T08:59:17;38.80;;;24.35;;
37495;SDS011;23346;52.088;4.746;2022-07-31T09:01:43;32.03;;;21.92;;
37495;SDS011;23346;52.088;4.746;2022-07-31T09:04:09;34.47;;;21.98;;
37495;SDS011;23346;52.088;4.746;2022-07-31T09:06:36;28.00;;;21.83;;
37495;SDS011;23346;52.088;4.746;2022-07-31T09:09:02;32.95;;;23.08;;
37495;SDS011;23346;52.088;4.746;2022-07-31T09:11:29;34.63;;;23.20;;
37495;SDS011;23346;52.088;4.746;2022-07-31T09:13:55;36.47;;;22.58;;
37495;SDS011;23346;52.088;4.746;2022-07-31T09:16:22;32.15;;;21.98;;
37495;SDS011;23346;52.088;4.746;2022-07-31T09:19:01;30.70;;;23.27;;
37495;SDS011;23346;52.088;4.746;2022-07-31T09:21:37;31.85;;;20.92;;
37495;SDS011;23346;52.088;4.746;2022-07-31T09:24:04;25.92;;;20.77;;
37495;SDS011;23346;52.088;4.746;2022-07-31T09:26:32;23.00;;;20.38;;
37495;SDS011;23346;52.088;4.746;2022-07-31T09:28:59;27.92;;;21.20;;
37495;SDS011;23346;52.088;4.746;2022-07-31T09:31:30;26.23;;;20.77;;
37495;SDS011;23346;52.088;4.746;2022-07-31T09:33:56;29.65;;;22.25;;
37495;SDS011;23346;52.088;4.746;2022-07-31T09:36:22;24.52;;;21.00;;
37495;SDS011;23346;52.088;4.746;2022-07-31T09:38:49;30.98;;;23.52;;
37495;SDS011;23346;52.088;4.746;2022-07-31T09:41:16;34.45;;;25.45;;
37495;SDS011;23346;52.088;4.746;2022-07-31T09:43:43;31.98;;;24.90;;
37495;SDS011;23346;52.088;4.746;2022-07-31T09:46:09;34.58;;;27.38;;
37495;SDS011;23346;52.088;4.746;2022-07-31T09:48:35;33.38;;;26.58;;
37495;SDS011;23346;52.088;4.746;2022-07-31T09:51:05;42.20;;;30.42;;
37495;SDS011;23346;52.088;4.746;2022-07-31T09:53:47;44.55;;;31.63;;
37495;SDS011;23346;52.088;4.746;2022-07-31T09:56:16;43.88;;;31.92;;
37495;SDS011;23346;52.088;4.746;2022-07-31T09:58:43;48.35;;;30.90;;
37495;SDS011;23346;52.088;4.746;2022-07-31T10:01:09;46.92;;;32.00;;
37495;SDS011;23346;52.088;4.746;2022-07-31T10:03:36;47.13;;;32.70;;
37495;SDS011;23346;52.088;4.746;2022-07-31T10:06:03;43.47;;;32.03;;
37495;SDS011;23346;52.088;4.746;2022-07-31T10:08:32;44.42;;;31.88;;
37495;SDS011;23346;52.088;4.746;2022-07-31T10:10:59;52.05;;;33.60;;
37495;SDS011;23346;52.088;4.746;2022-07-31T10:13:26;40.33;;;32.10;;
37495;SDS011;23346;52.088;4.746;2022-07-31T10:15:52;49.33;;;32.15;;
37495;SDS011;23346;52.088;4.746;2022-07-31T10:18:19;45.58;;;31.38;;
37495;SDS011;23346;52.088;4.746;2022-07-31T10:20:48;44.08;;;30.30;;
37495;SDS011;23346;52.088;4.746;2022-07-31T10:23:18;40.17;;;29.85;;
37495;SDS011;23346;52.088;4.746;2022-07-31T10:25:51;40.67;;;29.13;;
37495;SDS011;23346;52.088;4.746;2022-07-31T10:28:17;39.30;;;28.35;;
37495;SDS011;23346;52.088;4.746;2022-07-31T10:30:44;42.60;;;29.00;;
37495;SDS011;23346;52.088;4.746;2022-07-31T10:33:10;33.20;;;26.95;;
37495;SDS011;23346;52.088;4.746;2022-07-31T10:36:10;36.28;;;27.58;;
37495;SDS011;23346;52.088;4.746;2022-07-31T10:38:30;38.72;;;26.83;;
37495;SDS011;23346;52.088;4.746;2022-07-31T10:43:47;38.60;;;25.73;;
37495;SDS011;23346;52.088;4.746;2022-07-31T10:46:25;38.45;;;24.13;;
37495;SDS011;23346;52.088;4.746;2022-07-31T10:48:51;35.28;;;23.92;;
37495;SDS011;23346;52.088;4.746;2022-07-31T10:51:17;30.60;;;20.63;;
37495;SDS011;23346;52.088;4.746;2022-07-31T10:53:55;28.33;;;18.17;;
37495;SDS011;23346;52.088;4.746;2022-07-31T10:56:22;31.77;;;19.08;;
37495;SDS011;23346;52.088;4.746;2022-07-31T10:58:57;23.88;;;17.85;;
37495;SDS011;23346;52.088;4.746;2022-07-31T11:01:24;21.48;;;16.55;;
37495;SDS011;23346;52.088;4.746;2022-07-31T11:03:57;24.35;;;15.15;;
37495;SDS011;23346;52.088;4.746;2022-07-31T11:06:23;22.15;;;13.40;;
37495;SDS011;23346;52.088;4.746;2022-07-31T11:08:51;26.73;;;13.05;;
37495;SDS011;23346;52.088;4.746;2022-07-31T11:11:29;21.50;;;12.20;;
37495;SDS011;23346;52.088;4.746;2022-07-31T11:13:55;25.98;;;12.27;;
37495;SDS011;23346;52.088;4.746;2022-07-31T11:16:23;20.92;;;12.73;;
37495;SDS011;23346;52.088;4.746;2022-07-31T11:19:02;20.48;;;12.52;;
37495;SDS011;23346;52.088;4.746;2022-07-31T11:21:38;14.52;;;10.18;;
37495;SDS011;23346;52.088;4.746;2022-07-31T11:24:18;17.85;;;9.90;;
37495;SDS011;23346;52.088;4.746;2022-07-31T11:29:24;20.08;;;11.57;;
37495;SDS011;23346;52.088;4.746;2022-07-31T11:31:50;15.30;;;9.50;;
37495;SDS011;23346;52.088;4.746;2022-07-31T11:34:16;20.20;;;11.50;;
37495;SDS011;23346;52.088;4.746;2022-07-31T11:36:42;22.15;;;12.27;;
37495;SDS011;23346;52.088;4.746;2022-07-31T11:39:10;24.08;;;12.75;;
37495;SDS011;23346;52.088;4.746;2022-07-31T11:41:36;19.98;;;11.73;;
37495;SDS011;23346;52.088;4.746;2022-07-31T11:44:03;17.08;;;10.73;;
37495;SDS011;23346;52.088;4.746;2022-07-31T11:46:30;19.92;;;11.15;;
37495;SDS011;23346;52.088;4.746;2022-07-31T11:48:57;18.15;;;10.00;;
37495;SDS011;23346;52.088;4.746;2022-07-31T11:51:23;13.57;;;7.95;;
37495;SDS011;23346;52.088;4.746;2022-07-31T11:53:50;13.75;;;8.13;;
37495;SDS011;23346;52.088;4.746;2022-07-31T11:56:16;14.93;;;7.68;;
37495;SDS011;23346;52.088;4.746;2022-07-31T11:59:01;13.13;;;7.03;;
37495;SDS011;23346;52.088;4.746;2022-07-31T12:01:27;14.65;;;7.40;;
37495;SDS011;23346;52.088;4.746;2022-07-31T12:03:54;15.10;;;8.10;;
37495;SDS011;23346;52.088;4.746;2022-07-31T12:06:21;13.55;;;7.03;;
37495;SDS011;23346;52.088;4.746;2022-07-31T12:08:47;9.48;;;6.15;;
37495;SDS011;23346;52.088;4.746;2022-07-31T12:11:15;11.25;;;6.13;;
37495;SDS011;23346;52.088;4.746;2022-07-31T12:13:43;9.52;;;5.97;;
37495;SDS011;23346;52.088;4.746;2022-07-31T12:16:10;10.98;;;4.80;;
37495;SDS011;23346;52.088;4.746;2022-07-31T12:21:11;10.38;;;4.53;;
37495;SDS011;23346;52.088;4.746;2022-07-31T12:26:20;6.95;;;3.85;;
37495;SDS011;23346;52.088;4.746;2022-07-31T12:31:28;7.50;;;4.15;;
37495;SDS011;23346;52.088;4.746;2022-07-31T12:33:55;6.75;;;3.83;;
37495;SDS011;23346;52.088;4.746;2022-07-31T12:36:21;9.32;;;3.95;;
37495;SDS011;23346;52.088;4.746;2022-07-31T12:39:08;7.00;;;4.05;;
37495;SDS011;23346;52.088;4.746;2022-07-31T12:41:40;12.85;;;4.07;;
37495;SDS011;23346;52.088;4.746;2022-07-31T12:44:08;8.98;;;3.85;;
37495;SDS011;23346;52.088;4.746;2022-07-31T12:46:34;13.00;;;4.03;;
37495;SDS011;23346;52.088;4.746;2022-07-31T12:49:04;7.53;;;4.13;;
37495;SDS011;23346;52.088;4.746;2022-07-31T12:51:33;15.07;;;4.90;;
37495;SDS011;23346;52.088;4.746;2022-07-31T12:54:03;15.07;;;4.28;;
37495;SDS011;23346;52.088;4.746;2022-07-31T12:56:32;8.23;;;4.43;;
37495;SDS011;23346;52.088;4.746;2022-07-31T12:58:59;16.23;;;4.30;;
37495;SDS011;23346;52.088;4.746;2022-07-31T13:01:26;6.55;;;3.88;;
37495;SDS011;23346;52.088;4.746;2022-07-31T13:03:52;8.65;;;4.03;;
37495;SDS011;23346;52.088;4.746;2022-07-31T13:06:20;9.98;;;3.53;;
37495;SDS011;23346;52.088;4.746;2022-07-31T13:08:46;9.35;;;4.07;;
37495;SDS011;23346;52.088;4.746;2022-07-31T13:11:12;12.77;;;4.28;;
37495;SDS011;23346;52.088;4.746;2022-07-31T13:13:38;12.45;;;4.22;;
37495;SDS011;23346;52.088;4.746;2022-07-31T13:16:04;12.45;;;4.28;;
37495;SDS011;23346;52.088;4.746;2022-07-31T13:18:31;11.95;;;4.53;;
37495;SDS011;23346;52.088;4.746;2022-07-31T13:20:58;11.00;;;4.63;;
37495;SDS011;23346;52.088;4.746;2022-07-31T13:23:24;11.38;;;5.32;;
37495;SDS011;23346;52.088;4.746;2022-07-31T13:25:50;16.25;;;6.15;;
37495;SDS011;23346;52.088;4.746;2022-07-31T13:28:16;13.65;;;6.03;;
37495;SDS011;23346;52.088;4.746;2022-07-31T13:30:42;12.27;;;6.05;;
37495;SDS011;23346;52.088;4.746;2022-07-31T13:33:08;15.35;;;6.20;;
37495;SDS011;23346;52.088;4.746;2022-07-31T13:35:34;17.65;;;6.85;;
37495;SDS011;23346;52.088;4.746;2022-07-31T13:38:00;17.48;;;7.20;;
37495;SDS011;23346;52.088;4.746;2022-07-31T13:40:26;19.23;;;7.20;;
37495;SDS011;23346;52.088;4.746;2022-07-31T13:43:11;14.52;;;6.35;;
37495;SDS011;23346;52.088;4.746;2022-07-31T13:45:37;15.50;;;5.78;;
37495;SDS011;23346;52.088;4.746;2022-07-31T13:48:03;13.13;;;7.00;;
37495;SDS011;23346;52.088;4.746;2022-07-31T13:50:30;16.60;;;7.72;;
37495;SDS011;23346;52.088;4.746;2022-07-31T13:52:56;18.45;;;7.68;;
37495;SDS011;23346;52.088;4.746;2022-07-31T13:55:23;17.35;;;7.65;;
37495;SDS011;23346;52.088;4.746;2022-07-31T13:57:49;12.27;;;6.40;;
37495;SDS011;23346;52.088;4.746;2022-07-31T14:00:15;11.68;;;6.05;;
37495;SDS011;23346;52.088;4.746;2022-07-31T14:02:41;15.23;;;6.30;;
37495;SDS011;23346;52.088;4.746;2022-07-31T14:05:10;14.70;;;6.15;;
37495;SDS011;23346;52.088;4.746;2022-07-31T14:07:36;15.80;;;6.35;;
37495;SDS011;23346;52.088;4.746;2022-07-31T14:10:02;14.80;;;6.47;;
37495;SDS011;23346;52.088;4.746;2022-07-31T14:12:28;18.73;;;6.00;;
37495;SDS011;23346;52.088;4.746;2022-07-31T14:14:54;9.23;;;4.80;;
37495;SDS011;23346;52.088;4.746;2022-07-31T14:17:20;8.98;;;5.72;;
37495;SDS011;23346;52.088;4.746;2022-07-31T14:19:46;8.95;;;6.40;;
37495;SDS011;23346;52.088;4.746;2022-07-31T14:22:12;12.23;;;6.20;;
37495;SDS011;23346;52.088;4.746;2022-07-31T14:24:38;14.35;;;5.65;;
37495;SDS011;23346;52.088;4.746;2022-07-31T14:27:05;10.77;;;5.35;;
37495;SDS011;23346;52.088;4.746;2022-07-31T14:29:31;13.38;;;7.05;;
37495;SDS011;23346;52.088;4.746;2022-07-31T14:31:59;13.70;;;6.28;;
37495;SDS011;23346;52.088;4.746;2022-07-31T14:34:25;17.58;;;7.35;;
37495;SDS011;23346;52.088;4.746;2022-07-31T14:36:51;13.95;;;7.07;;
37495;SDS011;23346;52.088;4.746;2022-07-31T14:39:17;15.82;;;8.10;;
37495;SDS011;23346;52.088;4.746;2022-07-31T14:41:43;20.90;;;8.13;;
37495;SDS011;23346;52.088;4.746;2022-07-31T14:44:09;14.80;;;7.22;;
37495;SDS011;23346;52.088;4.746;2022-07-31T14:46:35;16.48;;;6.72;;